Temp: 11.6°C   Baro: 1028.9mb
  Wind: 0.0mph   Dir: NE (51°)
  Rain: 0.0mm (0.0mm/hr)
  Solar: 0W/m2  Hum: 82%
 
Bath Spa Weather Historical Data
Daily Summary for June 11, 2019 Units:  Metric    English   Both
Next Day »
Daily Weekly Monthly Yearly Custom
  High: Low: Average:
Temperature: 10.7 °C 8.3 °C 9.5 °C
Dew Point: 9.1 °C 6.8 °C 8 °C
Humidity: 92% 88% 90%
Wind Speed: 25.9km/h 0.0km/h 9.1km/h
Wind Gust: 46.7km/h - -
Wind direction- - East
Pressure: 1014.4 hPa 1011.1 hPa -
Precipitation: 10.7 mm    
Historical Graphs
 
 
Tabular Data for June 11, 2019
Time Temperature Dew Point Pressure Wind direction Wind Speed Wind Gust Humidity Rainfall Rate (Hourly) solar
00:04 8.7 °C 7.2 °C 1012.8 hPa NNE 16.3 km/h 22.5 km/h 90% 0.3 mm 0.00 W/m2
00:09 8.7 °C 7.2 °C 1012.8 hPa NW 6.4 km/h 16.1 km/h 90% 0.3 mm 0.00 W/m2
00:14 8.7 °C 7.2 °C 1012.8 hPa North 14.3 km/h 25.7 km/h 90% 0.3 mm 0.00 W/m2
00:19 8.7 °C 7.2 °C 1012.8 hPa North 9.7 km/h 20.9 km/h 90% 0.3 mm 0.00 W/m2
00:24 8.7 °C 7.2 °C 1012.8 hPa North 17.7 km/h 25.7 km/h 90% 0.3 mm 0.00 W/m2
00:29 8.7 °C 7.2 °C 1012.8 hPa North 14.3 km/h 22.5 km/h 90% 0.3 mm 0.00 W/m2
00:34 8.7 °C 7.2 °C 1012.8 hPa North 9.7 km/h 14.5 km/h 90% 0.3 mm 0.00 W/m2
00:39 8.7 °C 7.2 °C 1012.8 hPa North 9.7 km/h 16.1 km/h 90% 0.5 mm 0.00 W/m2
00:44 8.6 °C 7.1 °C 1012.8 hPa NE 13.0 km/h 19.3 km/h 90% 0.5 mm 0.00 W/m2
00:49 8.5 °C 7.0 °C 1012.8 hPa NW 7.9 km/h 17.7 km/h 90% 1.0 mm 0.00 W/m2
00:54 8.5 °C 7.0 °C 1012.8 hPa NE 6.4 km/h 17.7 km/h 90% 1.3 mm 0.00 W/m2
00:59 8.5 °C 7.0 °C 1012.4 hPa NE 16.3 km/h 25.7 km/h 90% 1.8 mm 0.00 W/m2
01:04 8.4 °C 6.9 °C 1012.8 hPa NE 7.9 km/h 27.4 km/h 90% 2.3 mm 0.00 W/m2
01:09 8.4 °C 6.9 °C 1012.8 hPa Calm   16.1 km/h 90% 2.8 mm 0.00 W/m2
01:14 8.3 °C 6.8 °C 1012.4 hPa NNW 1.4 km/h 11.3 km/h 90% 3.3 mm 0.00 W/m2
01:19 8.3 °C 6.9 °C 1012.4 hPa NNW 9.7 km/h 25.7 km/h 91% 3.6 mm 0.00 W/m2
01:24 8.3 °C 6.9 °C 1012.4 hPa NW 11.1 km/h 27.4 km/h 91% 3.8 mm 0.00 W/m2
01:29 8.3 °C 6.9 °C 1012.4 hPa NNW 14.3 km/h 22.5 km/h 91% 3.8 mm 0.00 W/m2
01:34 8.3 °C 6.9 °C 1012.1 hPa NNW 16.3 km/h 24.1 km/h 91% 3.8 mm 0.00 W/m2
01:39 8.3 °C 6.9 °C 1012.1 hPa NNE 16.3 km/h 17.7 km/h 91% 3.8 mm 0.00 W/m2
01:44 8.3 °C 6.9 °C 1012.1 hPa NNW 13.0 km/h 20.9 km/h 91% 3.6 mm 0.00 W/m2
01:49 8.3 °C 6.9 °C 1012.1 hPa NW 7.9 km/h 16.1 km/h 91% 3.6 mm 0.00 W/m2
01:54 8.3 °C 6.9 °C 1012.1 hPa North 4.7 km/h 14.5 km/h 91% 3.6 mm 0.00 W/m2
01:59 8.3 °C 6.9 °C 1012.1 hPa North 7.9 km/h 12.9 km/h 91% 3.6 mm 0.00 W/m2
02:04 8.3 °C 7.1 °C 1012.1 hPa North 17.7 km/h 25.7 km/h 92% 3.3 mm 0.00 W/m2
02:09 8.4 °C 7.2 °C 1012.1 hPa NNW 7.9 km/h 17.7 km/h 92% 2.8 mm 0.00 W/m2
02:14 8.4 °C 7.2 °C 1012.1 hPa North 6.4 km/h 24.1 km/h 92% 2.5 mm 0.00 W/m2
02:19 8.4 °C 7.2 °C 1012.1 hPa NNE 9.7 km/h 22.5 km/h 92% 2.5 mm 0.00 W/m2
02:24 8.5 °C 7.3 °C 1012.1 hPa North 24.1 km/h 24.1 km/h 92% 2.3 mm 0.00 W/m2
02:29 8.5 °C 7.3 °C 1012.1 hPa NNE 22.7 km/h 22.5 km/h 92% 2.3 mm 0.00 W/m2
02:34 8.7 °C 7.5 °C 1012.1 hPa NW 7.9 km/h 22.5 km/h 92% 2.3 mm 0.00 W/m2
02:39 8.7 °C 7.5 °C 1012.1 hPa NNE 4.7 km/h 9.7 km/h 92% 2.3 mm 0.00 W/m2
02:44 8.7 °C 7.5 °C 1011.7 hPa NNE 9.7 km/h 22.5 km/h 92% 1.8 mm 0.00 W/m2
02:49 8.8 °C 7.6 °C 1011.7 hPa NNW 9.7 km/h 17.7 km/h 92% 1.8 mm 0.00 W/m2
02:54 8.8 °C 7.6 °C 1011.7 hPa North 22.7 km/h 27.4 km/h 92% 1.3 mm 0.00 W/m2
02:59 8.8 °C 7.4 °C 1011.7 hPa NNW 6.4 km/h 30.6 km/h 91% 0.8 mm 0.00 W/m2
03:04 8.8 °C 7.4 °C 1011.7 hPa North 19.5 km/h 24.1 km/h 91% 1.0 mm 0.00 W/m2
03:09 8.8 °C 7.4 °C 1011.7 hPa NNW 11.1 km/h 33.8 km/h 91% 0.8 mm 0.00 W/m2
03:14 8.7 °C 7.3 °C 1011.7 hPa North 11.1 km/h 20.9 km/h 91% 0.5 mm 0.00 W/m2
03:19 8.7 °C 7.3 °C 1011.4 hPa North 17.7 km/h 27.4 km/h 91% 0.5 mm 0.00 W/m2
03:24 8.8 °C 7.4 °C 1011.4 hPa NE 9.7 km/h 32.2 km/h 91% 0.8 mm 0.00 W/m2
03:29 8.7 °C 7.3 °C 1011.4 hPa North 16.3 km/h 29.0 km/h 91% 0.8 mm 0.00 W/m2
03:34 8.8 °C 7.2 °C 1011.4 hPa NNE 3.2 km/h 17.7 km/h 90% 0.8 mm 0.00 W/m2
03:39 8.8 °C 7.2 °C 1011.4 hPa NNE 20.9 km/h 20.9 km/h 90% 0.5 mm 0.00 W/m2
03:44 8.8 °C 7.2 °C 1011.4 hPa North 14.3 km/h 17.7 km/h 90% 0.5 mm 0.00 W/m2
03:49 8.8 °C 7.2 °C 1011.4 hPa NNE 13.0 km/h 27.4 km/h 90% 0.8 mm 0.00 W/m2
03:54 8.8 °C 7.2 °C 1011.4 hPa North 16.3 km/h 29.0 km/h 90% 1.0 mm 0.00 W/m2
03:59 8.8 °C 7.2 °C 1011.4 hPa NNW 20.9 km/h 25.7 km/h 90% 1.0 mm 0.00 W/m2
04:04 8.8 °C 7.4 °C 1011.4 hPa North 3.2 km/h 19.3 km/h 91% 0.8 mm 0.00 W/m2
04:09 8.8 °C 7.4 °C 1011.1 hPa NE 13.0 km/h 16.1 km/h 91% 0.8 mm 0.00 W/m2
04:14 8.8 °C 7.4 °C 1011.1 hPa NNE 11.1 km/h 20.9 km/h 91% 0.8 mm 0.00 W/m2
04:19 8.9 °C 7.5 °C 1011.1 hPa NE 14.3 km/h 17.7 km/h 91% 1.0 mm 0.00 W/m2
04:24 8.9 °C 7.5 °C 1011.1 hPa North 20.9 km/h 29.0 km/h 91% 1.0 mm 0.00 W/m2
04:29 8.9 °C 7.5 °C 1011.1 hPa NNE 25.9 km/h 46.7 km/h 91% 1.0 mm 0.00 W/m2
04:34 8.9 °C 7.5 °C 1011.1 hPa North 4.7 km/h 19.3 km/h 91% 1.0 mm 0.00 W/m2
04:39 8.9 °C 7.5 °C 1011.1 hPa NNE 19.5 km/h 25.7 km/h 91% 1.0 mm 0.00 W/m2
04:44 8.8 °C 7.2 °C 1011.1 hPa NNE 16.3 km/h 25.7 km/h 90% 1.0 mm 0.00 W/m2
04:49 8.8 °C 7.2 °C 1011.1 hPa NNW 17.7 km/h 37.0 km/h 90% 1.0 mm 0.00 W/m2
04:54 8.8 °C 7.2 °C 1011.1 hPa NNE 20.9 km/h 33.8 km/h 90% 0.8 mm 0.00 W/m2
04:59 8.8 °C 7.1 °C 1011.1 hPa North 13.0 km/h 24.1 km/h 89% 0.8 mm 0.00 W/m2
05:04 8.8 °C 7.1 °C 1011.1 hPa NNE 7.9 km/h 29.0 km/h 89% 0.5 mm 0.00 W/m2
05:09 8.9 °C 7.2 °C 1011.1 hPa NNE 11.1 km/h 29.0 km/h 89% 0.5 mm 0.00 W/m2
05:14 8.8 °C 7.1 °C 1011.1 hPa NNE 11.1 km/h 25.7 km/h 89% 0.3 mm 0.00 W/m2
05:19 8.8 °C 7.1 °C 1011.1 hPa NNE 9.7 km/h 22.5 km/h 89% 0.3 mm 5.00 W/m2
05:24 8.8 °C 7.1 °C 1011.1 hPa NE 14.3 km/h 33.8 km/h 89% 0.3 mm 11.00 W/m2
05:29 8.8 °C 7.1 °C 1011.1 hPa North 14.3 km/h 19.3 km/h 89% 0.3 mm 9.00 W/m2
05:34 8.8 °C 7.2 °C 1011.1 hPa NNE 14.3 km/h 30.6 km/h 90% 0.3 mm 5.00 W/m2
05:39 8.8 °C 7.2 °C 1011.1 hPa North 6.4 km/h 17.7 km/h 90% 0.3 mm 5.00 W/m2
05:44 8.7 °C 7.2 °C 1011.4 hPa North 7.9 km/h 14.5 km/h 90% 0.5 mm 7.00 W/m2
05:49 8.7 °C 7.2 °C 1011.4 hPa NNW 6.4 km/h 16.1 km/h 90% 0.3 mm 0.00 W/m2
05:54 8.7 °C 7.2 °C 1011.4 hPa NNE 13.0 km/h 20.9 km/h 90% 0.5 mm 5.00 W/m2
05:59 8.8 °C 7.2 °C 1011.4 hPa NE 14.3 km/h 14.5 km/h 90% 0.5 mm 5.00 W/m2
06:04 8.8 °C 7.4 °C 1011.4 hPa NW 6.4 km/h 8.0 km/h 91% 0.5 mm 5.00 W/m2
06:09 8.8 °C 7.4 °C 1011.4 hPa ENE 7.9 km/h 24.1 km/h 91% 0.5 mm 5.00 W/m2
06:14 8.9 °C 7.5 °C 1011.4 hPa NNE 13.0 km/h 12.9 km/h 91% 0.5 mm 9.00 W/m2
06:19 8.9 °C 7.5 °C 1011.4 hPa NE 1.4 km/h 12.9 km/h 91% 0.5 mm 0.00 W/m2
06:24 9.0 °C 7.6 °C 1011.4 hPa NNE 16.3 km/h 17.7 km/h 91% 0.5 mm 7.00 W/m2
06:29 9.0 °C 7.6 °C 1011.1 hPa ENE 4.7 km/h 27.4 km/h 91% 0.5 mm 7.00 W/m2
06:34 9.1 °C 7.7 °C 1011.1 hPa NE 16.3 km/h 16.1 km/h 91% 0.5 mm 9.00 W/m2
06:39 9.1 °C 7.7 °C 1011.1 hPa NNE 4.7 km/h 14.5 km/h 91% 0.5 mm 9.00 W/m2
06:44 9.2 °C 7.8 °C 1011.1 hPa NNE 14.3 km/h 17.7 km/h 91% 0.5 mm 9.00 W/m2
06:49 9.3 °C 7.9 °C 1011.4 hPa Calm   9.7 km/h 91% 0.5 mm 7.00 W/m2
06:54 9.2 °C 7.8 °C 1011.4 hPa NNE 3.2 km/h 14.5 km/h 91% 0.5 mm 11.00 W/m2
06:59 9.3 °C 7.9 °C 1011.4 hPa NNE 3.2 km/h 3.2 km/h 91% 0.8 mm 16.00 W/m2
07:04 9.3 °C 7.9 °C 1011.1 hPa NE 4.7 km/h 19.3 km/h 91% 0.8 mm 14.00 W/m2
07:09 9.3 °C 7.9 °C 1011.4 hPa NE 17.7 km/h 25.7 km/h 91% 0.8 mm 19.00 W/m2
07:14 9.4 °C 8.0 °C 1011.4 hPa NNE 11.1 km/h 27.4 km/h 91% 0.8 mm 28.00 W/m2
07:19 9.4 °C 8.0 °C 1011.4 hPa ENE 14.3 km/h 19.3 km/h 91% 0.8 mm 44.00 W/m2
07:24 9.4 °C 7.8 °C 1011.4 hPa ENE 24.1 km/h 24.1 km/h 90% 0.8 mm 40.00 W/m2
07:29 9.4 °C 7.8 °C 1011.4 hPa NNE 25.9 km/h 25.7 km/h 90% 0.8 mm 49.00 W/m2
07:34 9.5 °C 7.9 °C 1011.4 hPa NNE 6.4 km/h 20.9 km/h 90% 0.8 mm 46.00 W/m2
07:39 9.5 °C 7.9 °C 1011.7 hPa NE 11.1 km/h 17.7 km/h 90% 0.8 mm 44.00 W/m2
07:44 9.6 °C 8.0 °C 1011.4 hPa NE 13.0 km/h 33.8 km/h 90% 0.8 mm 39.00 W/m2
07:49 9.6 °C 8.0 °C 1011.7 hPa NNE 16.3 km/h 25.7 km/h 90% 0.8 mm 32.00 W/m2
07:54 9.6 °C 8.0 °C 1011.7 hPa NE 11.1 km/h 35.4 km/h 90% 0.3 mm 30.00 W/m2
07:59 9.6 °C 8.0 °C 1011.7 hPa NNE 16.3 km/h 30.6 km/h 90% 0.3 mm 30.00 W/m2
08:04 9.6 °C 8.0 °C 1011.7 hPa NE 17.7 km/h 24.1 km/h 90% 0.3 mm 40.00 W/m2
08:09 9.7 °C 8.1 °C 1011.7 hPa NNE 4.7 km/h 25.7 km/h 90% 0.3 mm 33.00 W/m2
08:14 9.7 °C 8.0 °C 1011.7 hPa NE 6.4 km/h 22.5 km/h 89% 0.3 mm 35.00 W/m2
08:19 9.7 °C 8.0 °C 1011.7 hPa SE 9.7 km/h 12.9 km/h 89% 0.3 mm 42.00 W/m2
08:24 9.8 °C 8.1 °C 1011.7 hPa ENE 7.9 km/h 20.9 km/h 89% 0.0 mm 47.00 W/m2
08:29 9.8 °C 8.1 °C 1011.7 hPa North 4.7 km/h 25.7 km/h 89% 0.0 mm 53.00 W/m2
08:34 9.9 °C 8.2 °C 1011.7 hPa ENE 11.1 km/h 16.1 km/h 89% 0.0 mm 60.00 W/m2
08:39 9.9 °C 8.2 °C 1011.7 hPa East 7.9 km/h 19.3 km/h 89% 0.0 mm 62.00 W/m2
08:44 9.9 °C 8.2 °C 1011.7 hPa North 4.7 km/h 19.3 km/h 89% 0.0 mm 98.00 W/m2
08:49 9.9 °C 8.2 °C 1012.1 hPa North 6.4 km/h 19.3 km/h 89% 0.3 mm 84.00 W/m2
08:54 9.9 °C 8.2 °C 1012.1 hPa NNE 19.5 km/h 20.9 km/h 89% 0.5 mm 60.00 W/m2
08:59 9.8 °C 8.1 °C 1012.1 hPa NE 3.2 km/h 32.2 km/h 89% 0.5 mm 46.00 W/m2
09:04 9.8 °C 8.1 °C 1012.1 hPa NNE 11.1 km/h 19.3 km/h 89% 0.5 mm 25.00 W/m2
09:09 9.9 °C 8.2 °C 1012.1 hPa ENE 4.7 km/h 20.9 km/h 89% 0.5 mm 33.00 W/m2
09:14 9.9 °C 8.2 °C 1012.4 hPa ENE 16.3 km/h 17.7 km/h 89% 0.5 mm 56.00 W/m2
09:19 9.9 °C 8.2 °C 1012.1 hPa NNE 6.4 km/h 8.0 km/h 89% 0.8 mm 56.00 W/m2
09:24 9.9 °C 8.3 °C 1012.4 hPa NNE 4.7 km/h 14.5 km/h 90% 1.0 mm 90.00 W/m2
09:29 9.8 °C 8.2 °C 1012.4 hPa NE 4.7 km/h 6.4 km/h 90% 1.0 mm 90.00 W/m2
09:34 9.8 °C 8.2 °C 1012.4 hPa NNE 3.2 km/h 24.1 km/h 90% 1.3 mm 105.00 W/m2
09:39 9.9 °C 8.3 °C 1012.4 hPa ENE 1.4 km/h 11.3 km/h 90% 1.3 mm 123.00 W/m2
09:44 9.8 °C 8.2 °C 1012.4 hPa NE 6.4 km/h 25.7 km/h 90% 1.3 mm 111.00 W/m2
09:49 9.9 °C 8.3 °C 1012.4 hPa Calm   20.9 km/h 90% 1.0 mm 72.00 W/m2
09:54 9.9 °C 8.3 °C 1012.4 hPa NE 13.0 km/h 16.1 km/h 90% 1.0 mm 141.00 W/m2
09:59 10.0 °C 8.4 °C 1012.4 hPa NE 14.3 km/h 27.4 km/h 90% 1.0 mm 148.00 W/m2
10:04 10.0 °C 8.4 °C 1012.4 hPa NNE 3.2 km/h 16.1 km/h 90% 1.0 mm 144.00 W/m2
10:09 9.9 °C 8.3 °C 1012.4 hPa NNE 17.7 km/h 22.5 km/h 90% 1.0 mm 160.00 W/m2
10:14 10.0 °C 8.4 °C 1012.4 hPa North 9.7 km/h 27.4 km/h 90% 1.0 mm 199.00 W/m2
10:19 10.1 °C 8.5 °C 1012.4 hPa NNE 7.9 km/h 17.7 km/h 90% 0.8 mm 172.00 W/m2
10:24 10.0 °C 8.4 °C 1012.4 hPa NNE 7.9 km/h 27.4 km/h 90% 0.5 mm 72.00 W/m2
10:29 10.0 °C 8.4 °C 1012.4 hPa ENE 11.1 km/h 25.7 km/h 90% 0.5 mm 95.00 W/m2
10:34 10.0 °C 8.4 °C 1012.4 hPa NNE 7.9 km/h 14.5 km/h 90% 0.3 mm 90.00 W/m2
10:39 10.0 °C 8.4 °C 1012.4 hPa ENE 17.7 km/h 20.9 km/h 90% 0.3 mm 107.00 W/m2
10:44 10.0 °C 8.4 °C 1012.8 hPa NNE 9.7 km/h 16.1 km/h 90% 0.3 mm 102.00 W/m2
10:49 10.0 °C 8.4 °C 1012.8 hPa ENE 4.7 km/h 14.5 km/h 90% 0.3 mm 97.00 W/m2
10:54 10.0 °C 8.4 °C 1012.8 hPa NE 6.4 km/h 14.5 km/h 90% 0.3 mm 95.00 W/m2
10:59 10.0 °C 8.4 °C 1012.8 hPa NE 6.4 km/h 16.1 km/h 90% 0.0 mm 104.00 W/m2
11:04 10.1 °C 8.5 °C 1012.8 hPa North 9.7 km/h 14.5 km/h 90% 0.0 mm 90.00 W/m2
11:09 10.1 °C 8.4 °C 1012.8 hPa NE 13.0 km/h 19.3 km/h 89% 0.0 mm 90.00 W/m2
11:14 10.1 °C 8.4 °C 1012.8 hPa NNW 9.7 km/h 32.2 km/h 89% 0.0 mm 121.00 W/m2
11:19 10.2 °C 8.5 °C 1012.8 hPa NNE 4.7 km/h 24.1 km/h 89% 0.0 mm 104.00 W/m2
11:24 10.3 °C 8.6 °C 1012.8 hPa NE 17.7 km/h 20.9 km/h 89% 0.0 mm 121.00 W/m2
11:29 10.3 °C 8.6 °C 1012.8 hPa ENE 7.9 km/h 25.7 km/h 89% 0.0 mm 127.00 W/m2
11:34 10.3 °C 8.6 °C 1012.8 hPa NE 13.0 km/h 22.5 km/h 89% 0.0 mm 90.00 W/m2
11:39 10.4 °C 8.7 °C 1012.8 hPa NE 4.7 km/h 17.7 km/h 89% 0.0 mm 98.00 W/m2
11:44 10.4 °C 8.7 °C 1013.1 hPa ESE 3.2 km/h 16.1 km/h 89% 0.0 mm 107.00 W/m2
11:49 10.4 °C 8.7 °C 1013.1 hPa NNE 20.9 km/h 20.9 km/h 89% 0.0 mm 86.00 W/m2
11:54 10.4 °C 8.7 °C 1013.1 hPa NE 7.9 km/h 29.0 km/h 89% 0.0 mm 100.00 W/m2
11:59 10.4 °C 8.7 °C 1013.1 hPa NNE 13.0 km/h 19.3 km/h 89% 0.0 mm 74.00 W/m2
12:04 10.4 °C 8.7 °C 1013.1 hPa Calm   9.7 km/h 89% 0.0 mm 91.00 W/m2
12:09 10.4 °C 8.7 °C 1013.1 hPa East 17.7 km/h 22.5 km/h 89% 0.0 mm 107.00 W/m2
12:14 10.4 °C 8.7 °C 1013.1 hPa NNE 11.1 km/h 16.1 km/h 89% 0.0 mm 116.00 W/m2
12:19 10.4 °C 8.7 °C 1013.1 hPa NE 4.7 km/h 22.5 km/h 89% 0.0 mm 123.00 W/m2
12:24 10.4 °C 8.7 °C 1013.4 hPa NE 17.7 km/h 17.7 km/h 89% 0.0 mm 137.00 W/m2
12:29 10.5 °C 8.8 °C 1013.4 hPa NE 6.4 km/h 16.1 km/h 89% 0.0 mm 105.00 W/m2
12:34 10.5 °C 8.6 °C 1013.4 hPa ENE 4.7 km/h 14.5 km/h 88% 0.0 mm 109.00 W/m2
12:39 10.4 °C 8.5 °C 1013.4 hPa NE 13.0 km/h 19.3 km/h 88% 0.0 mm 97.00 W/m2
12:44 10.5 °C 8.6 °C 1013.4 hPa NE 1.4 km/h 16.1 km/h 88% 0.0 mm 116.00 W/m2
12:49 10.5 °C 8.8 °C 1013.4 hPa East 11.1 km/h 17.7 km/h 89% 0.0 mm 111.00 W/m2
12:54 10.5 °C 8.6 °C 1013.4 hPa NE 3.2 km/h 6.4 km/h 88% 0.0 mm 104.00 W/m2
12:59 10.5 °C 8.8 °C 1013.4 hPa North 7.9 km/h 16.1 km/h 89% 0.0 mm 113.00 W/m2
13:04 10.5 °C 8.8 °C 1013.4 hPa North 1.4 km/h 9.7 km/h 89% 0.0 mm 160.00 W/m2
13:09 10.6 °C 8.9 °C 1013.4 hPa NE 11.1 km/h 14.5 km/h 89% 0.0 mm 151.00 W/m2
13:14 10.6 °C 8.9 °C 1013.4 hPa ENE 25.7 km/h 25.7 km/h 89% 0.0 mm 130.00 W/m2
13:19 10.7 °C 9.0 °C 1013.4 hPa Calm   16.1 km/h 89% 0.0 mm 137.00 W/m2
13:24 10.7 °C 9.0 °C 1013.4 hPa Calm   3.2 km/h 89% 0.0 mm 146.00 W/m2
13:29 10.7 °C 9.0 °C 1013.4 hPa North 3.2 km/h 11.3 km/h 89% 0.0 mm 111.00 W/m2
13:34 10.7 °C 9.0 °C 1013.4 hPa ENE 14.3 km/h 17.7 km/h 89% 0.0 mm 151.00 W/m2
13:39 10.7 °C 9.0 °C 1013.4 hPa NNE 6.4 km/h 12.9 km/h 89% 0.0 mm 153.00 W/m2
13:44 10.7 °C 9.1 °C 1013.4 hPa Calm   17.7 km/h 90% 0.0 mm 163.00 W/m2
13:49 10.7 °C 9.1 °C 1013.4 hPa NE 4.7 km/h 8.0 km/h 90% 0.0 mm 127.00 W/m2
13:54 10.6 °C 9.0 °C 1013.4 hPa NNE 14.5 km/h 14.5 km/h 90% 0.0 mm 113.00 W/m2
13:59 10.5 °C 8.9 °C 1013.4 hPa NNE 3.2 km/h 24.1 km/h 90% 0.0 mm 137.00 W/m2
14:04 10.5 °C 8.9 °C 1013.4 hPa North 19.5 km/h 20.9 km/h 90% 0.0 mm 130.00 W/m2
14:09 10.6 °C 9.0 °C 1013.4 hPa North 3.2 km/h 14.5 km/h 90% 0.0 mm 142.00 W/m2
14:14 10.6 °C 9.0 °C 1013.8 hPa NE 4.7 km/h 20.9 km/h 90% 0.0 mm 116.00 W/m2
14:19 10.5 °C 8.9 °C 1013.8 hPa ENE 6.4 km/h 9.7 km/h 90% 0.0 mm 120.00 W/m2
14:24 10.5 °C 8.9 °C 1013.8 hPa North 6.4 km/h 17.7 km/h 90% 0.0 mm 151.00 W/m2
14:29 10.5 °C 8.9 °C 1013.8 hPa NNE 3.2 km/h 11.3 km/h 90% 0.0 mm 109.00 W/m2
14:34 10.6 °C 9.0 °C 1013.8 hPa Calm   12.9 km/h 90% 0.0 mm 107.00 W/m2
14:39 10.7 °C 9.1 °C 1013.8 hPa NNE 4.7 km/h 14.5 km/h 90% 0.0 mm 144.00 W/m2
14:44 10.5 °C 8.9 °C 1013.8 hPa North 11.1 km/h 19.3 km/h 90% 0.0 mm 97.00 W/m2
14:49 10.4 °C 9.0 °C 1013.8 hPa North 7.9 km/h 9.7 km/h 91% 0.0 mm 162.00 W/m2
14:54 10.5 °C 9.1 °C 1013.8 hPa NE 4.7 km/h 16.1 km/h 91% 0.0 mm 137.00 W/m2
14:59 10.4 °C 8.8 °C 1013.8 hPa NNE 6.4 km/h 17.7 km/h 90% 0.0 mm 102.00 W/m2
15:04 10.3 °C 8.7 °C 1013.8 hPa NNE 7.9 km/h 24.1 km/h 90% 0.0 mm 107.00 W/m2
15:09 10.3 °C 8.7 °C 1014.1 hPa NNE 7.9 km/h 12.9 km/h 90% 0.0 mm 102.00 W/m2
15:14 10.3 °C 8.9 °C 1014.1 hPa NE 6.4 km/h 16.1 km/h 91% 0.0 mm 120.00 W/m2
15:19 10.3 °C 8.9 °C 1014.1 hPa NE 14.3 km/h 24.1 km/h 91% 0.0 mm 153.00 W/m2
15:24 10.3 °C 8.9 °C 1014.1 hPa NNE 3.2 km/h 17.7 km/h 91% 0.0 mm 195.00 W/m2
15:29 10.4 °C 9.0 °C 1014.1 hPa NNE 1.4 km/h 22.5 km/h 91% 0.0 mm 123.00 W/m2
15:34 10.3 °C 8.7 °C 1014.1 hPa NNE 13.0 km/h 19.3 km/h 90% 0.0 mm 83.00 W/m2
15:39 10.3 °C 8.9 °C 1014.1 hPa ENE 3.2 km/h 12.9 km/h 91% 0.0 mm 76.00 W/m2
15:44 10.4 °C 9.0 °C 1014.1 hPa ENE 1.4 km/h 8.0 km/h 91% 0.0 mm 107.00 W/m2
15:49 10.3 °C 8.9 °C 1014.1 hPa Calm   6.4 km/h 91% 0.0 mm 125.00 W/m2
15:54 10.4 °C 9.0 °C 1014.1 hPa NE 3.2 km/h 12.9 km/h 91% 0.0 mm 120.00 W/m2
15:59 10.4 °C 9.0 °C 1014.1 hPa ENE 20.9 km/h 20.9 km/h 91% 0.0 mm 128.00 W/m2
16:04 10.3 °C 8.9 °C 1014.1 hPa NNE 6.4 km/h 16.1 km/h 91% 0.0 mm 86.00 W/m2
16:09 10.3 °C 8.9 °C 1014.1 hPa NNE 3.2 km/h 14.5 km/h 91% 0.0 mm 109.00 W/m2
16:14 10.3 °C 8.9 °C 1014.1 hPa North 1.4 km/h 12.9 km/h 91% 0.0 mm 90.00 W/m2
16:19 10.2 °C 8.8 °C 1014.1 hPa ENE 6.4 km/h 14.5 km/h 91% 0.0 mm 93.00 W/m2
16:24 10.2 °C 8.8 °C 1014.1 hPa NNE 6.4 km/h 20.9 km/h 91% 0.0 mm 67.00 W/m2
16:29 10.2 °C 8.8 °C 1014.1 hPa NNE 4.7 km/h 14.5 km/h 91% 0.0 mm 74.00 W/m2
16:34 10.2 °C 8.8 °C 1014.1 hPa NE 16.3 km/h 19.3 km/h 91% 0.0 mm 100.00 W/m2
16:39 10.2 °C 8.8 °C 1014.1 hPa ENE 7.9 km/h 17.7 km/h 91% 0.0 mm 76.00 W/m2
16:44 10.3 °C 8.9 °C 1014.1 hPa NNE 11.1 km/h 19.3 km/h 91% 0.0 mm 98.00 W/m2
16:49 10.3 °C 8.9 °C 1014.1 hPa NNE 13.0 km/h 12.9 km/h 91% 0.0 mm 81.00 W/m2
16:54 10.2 °C 8.8 °C 1014.1 hPa ENE 14.3 km/h 17.7 km/h 91% 0.0 mm 91.00 W/m2
16:59 10.2 °C 8.8 °C 1014.1 hPa Calm   4.8 km/h 91% 0.0 mm 86.00 W/m2
17:04 10.2 °C 8.8 °C 1014.1 hPa Calm   12.9 km/h 91% 0.0 mm 74.00 W/m2
17:09 10.2 °C 8.8 °C 1014.1 hPa NNE 3.2 km/h 9.7 km/h 91% 0.0 mm 51.00 W/m2
17:14 10.2 °C 8.8 °C 1014.1 hPa North 19.3 km/h 19.3 km/h 91% 0.0 mm 53.00 W/m2
17:19 10.0 °C 8.6 °C 1014.1 hPa ENE 16.3 km/h 17.7 km/h 91% 0.0 mm 60.00 W/m2
17:24 9.9 °C 8.3 °C 1014.1 hPa NE 13.0 km/h 17.7 km/h 90% 0.0 mm 56.00 W/m2
17:29 9.9 °C 8.5 °C 1014.1 hPa NNE 9.7 km/h 9.7 km/h 91% 0.0 mm 63.00 W/m2
17:34 9.8 °C 8.4 °C 1014.1 hPa North 14.3 km/h 24.1 km/h 91% 0.0 mm 56.00 W/m2
17:39 9.8 °C 8.4 °C 1014.1 hPa North 13.0 km/h 20.9 km/h 91% 0.0 mm 47.00 W/m2
17:44 9.8 °C 8.4 °C 1014.1 hPa NNE 9.7 km/h 14.5 km/h 91% 0.0 mm 58.00 W/m2
17:49 9.7 °C 8.3 °C 1014.1 hPa North 24.1 km/h 24.1 km/h 91% 0.0 mm 60.00 W/m2
17:54 9.7 °C 8.3 °C 1014.1 hPa NNE 9.7 km/h 19.3 km/h 91% 0.0 mm 53.00 W/m2
17:59 9.7 °C 8.3 °C 1014.1 hPa ENE 14.3 km/h 16.1 km/h 91% 0.0 mm 56.00 W/m2
18:04 9.7 °C 8.3 °C 1014.1 hPa NNE 4.7 km/h 22.5 km/h 91% 0.0 mm 47.00 W/m2
18:09 9.7 °C 8.3 °C 1014.1 hPa NNE 9.7 km/h 19.3 km/h 91% 0.0 mm 62.00 W/m2
18:14 9.8 °C 8.4 °C 1014.1 hPa NNE 6.4 km/h 14.5 km/h 91% 0.0 mm 62.00 W/m2
18:19 9.8 °C 8.4 °C 1014.1 hPa NNE 9.7 km/h 17.7 km/h 91% 0.0 mm 53.00 W/m2
18:24 9.8 °C 8.4 °C 1014.1 hPa NNE 1.4 km/h 20.9 km/h 91% 0.0 mm 46.00 W/m2
18:29 9.8 °C 8.4 °C 1014.1 hPa North 11.1 km/h 19.3 km/h 91% 0.0 mm 39.00 W/m2
18:34 9.8 °C 8.2 °C 1014.4 hPa North 4.7 km/h 11.3 km/h 90% 0.0 mm 33.00 W/m2
18:39 9.8 °C 8.2 °C 1014.1 hPa NE 16.3 km/h 24.1 km/h 90% 0.0 mm 54.00 W/m2
18:44 9.7 °C 8.1 °C 1014.1 hPa NNW 4.7 km/h 11.3 km/h 90% 0.0 mm 42.00 W/m2
18:49 9.6 °C 8.0 °C 1014.4 hPa North 16.3 km/h 19.3 km/h 90% 0.0 mm 53.00 W/m2
18:54 9.7 °C 8.1 °C 1014.1 hPa NNE 6.4 km/h 14.5 km/h 90% 0.0 mm 56.00 W/m2
18:59 9.7 °C 8.1 °C 1014.4 hPa NNE 4.7 km/h 9.7 km/h 90% 0.0 mm 40.00 W/m2
19:04 9.6 °C 8.0 °C 1014.4 hPa NNW 3.2 km/h 9.7 km/h 90% 0.0 mm 33.00 W/m2
19:09 9.5 °C 7.9 °C 1014.4 hPa NNE 7.9 km/h 17.7 km/h 90% 0.0 mm 33.00 W/m2
19:14 9.5 °C 7.9 °C 1014.4 hPa North 13.0 km/h 19.3 km/h 90% 0.0 mm 30.00 W/m2
19:19 9.5 °C 7.9 °C 1014.4 hPa NNE 6.4 km/h 8.0 km/h 90% 0.0 mm 23.00 W/m2
19:24 9.5 °C 7.9 °C 1014.4 hPa NNE 7.9 km/h 14.5 km/h 90% 0.0 mm 23.00 W/m2
19:29 9.4 °C 7.8 °C 1014.4 hPa North 4.7 km/h 16.1 km/h 90% 0.0 mm 26.00 W/m2
19:34 9.4 °C 7.8 °C 1014.4 hPa NNE 17.7 km/h 22.5 km/h 90% 0.0 mm 21.00 W/m2
19:39 9.3 °C 7.7 °C 1014.4 hPa NE 3.2 km/h 29.0 km/h 90% 0.0 mm 23.00 W/m2
19:44 9.3 °C 7.7 °C 1014.4 hPa NNE 14.3 km/h 17.7 km/h 90% 0.0 mm 19.00 W/m2
19:49 9.4 °C 7.8 °C 1014.4 hPa ENE 4.7 km/h 9.7 km/h 90% 0.0 mm 19.00 W/m2
19:54 9.4 °C 7.8 °C 1014.4 hPa Calm   4.8 km/h 90% 0.0 mm 14.00 W/m2
19:59 9.4 °C 7.8 °C 1014.4 hPa NE 14.3 km/h 17.7 km/h 90% 0.0 mm 11.00 W/m2
20:04 9.4 °C 7.7 °C 1014.4 hPa North 4.7 km/h 11.3 km/h 89% 0.0 mm 9.00 W/m2
20:09 9.3 °C 7.6 °C 1014.4 hPa NE 1.4 km/h 12.9 km/h 89% 0.0 mm 7.00 W/m2
20:14 9.3 °C 7.6 °C 1014.4 hPa ENE 11.1 km/h 14.5 km/h 89% 0.0 mm 7.00 W/m2
20:19 9.3 °C 7.6 °C 1014.4 hPa NE 1.4 km/h 6.4 km/h 89% 0.0 mm 5.00 W/m2
20:24 9.3 °C 7.6 °C 1014.4 hPa NE 1.4 km/h 6.4 km/h 89% 0.0 mm 5.00 W/m2
20:29 9.3 °C 7.6 °C 1014.4 hPa North 7.9 km/h 16.1 km/h 89% 0.0 mm 0.00 W/m2
20:34 9.3 °C 7.6 °C 1014.4 hPa NW 1.4 km/h 16.1 km/h 89% 0.0 mm 0.00 W/m2
20:39 9.3 °C 7.6 °C 1014.4 hPa North 3.2 km/h 14.5 km/h 89% 0.0 mm 0.00 W/m2
20:44 9.3 °C 7.6 °C 1014.4 hPa NE 13.0 km/h 12.9 km/h 89% 0.0 mm 0.00 W/m2
20:49 9.3 °C 7.6 °C 1014.4 hPa North 3.2 km/h 11.3 km/h 89% 0.0 mm 0.00 W/m2
20:54 9.3 °C 7.6 °C 1014.4 hPa ENE 11.1 km/h 12.9 km/h 89% 0.0 mm 0.00 W/m2
20:59 9.3 °C 7.6 °C 1014.4 hPa East 14.3 km/h 14.5 km/h 89% 0.0 mm 0.00 W/m2
21:04 9.3 °C 7.6 °C 1014.4 hPa Calm   4.8 km/h 89% 0.0 mm 0.00 W/m2
21:09 9.3 °C 7.6 °C 1014.4 hPa NE 6.4 km/h 19.3 km/h 89% 0.0 mm 0.00 W/m2
21:14 9.3 °C 7.6 °C 1014.4 hPa NNE 6.4 km/h 14.5 km/h 89% 0.0 mm 0.00 W/m2
21:19 9.3 °C 7.6 °C 1014.4 hPa NNE 9.7 km/h 19.3 km/h 89% 0.0 mm 0.00 W/m2
21:24 9.3 °C 7.6 °C 1014.4 hPa NNE 1.4 km/h 9.7 km/h 89% 0.0 mm 0.00 W/m2
21:24 9.3 °C 7.6 °C 1014.4 hPa NNE 7.9 km/h 9.7 km/h 89% 0.0 mm 0.00 W/m2
21:34 9.3 °C 7.6 °C 1014.4 hPa NNE 1.4 km/h 6.4 km/h 89% 0.0 mm 0.00 W/m2
21:39 9.3 °C 7.6 °C 1014.4 hPa NE 6.4 km/h 12.9 km/h 89% 0.0 mm 0.00 W/m2
21:41 9.3 °C 7.6 °C 1014.4 hPa NNE 4.7 km/h 9.7 km/h 89% 0.0 mm 0.00 W/m2
21:46 9.3 °C 7.6 °C 1014.4 hPa North 1.4 km/h 14.5 km/h 89% 0.0 mm 0.00 W/m2
21:49 9.3 °C 7.6 °C 1014.4 hPa NNE 1.4 km/h 8.0 km/h 89% 0.0 mm 0.00 W/m2
21:53 9.3 °C 7.6 °C 1014.4 hPa NE 13.0 km/h 14.5 km/h 89% 0.0 mm 0.00 W/m2
21:54 9.3 °C 7.6 °C 1014.4 hPa East 11.1 km/h 27.4 km/h 89% 0.0 mm 0.00 W/m2
21:58 9.2 °C 7.5 °C 1014.4 hPa NNE 6.4 km/h 14.5 km/h 89% 0.0 mm 0.00 W/m2
22:10 9.3 °C 7.4 °C 1014.4 hPa East 1.4 km/h 14.5 km/h 88% 0.0 mm 0.00 W/m2
22:19 9.2 °C 7.3 °C 1014.1 hPa Calm   3.2 km/h 88% 0.0 mm 0.00 W/m2
22:24 9.2 °C 7.3 °C 1014.1 hPa NNE 1.4 km/h 8.0 km/h 88% 0.0 mm 0.00 W/m2
22:29 9.2 °C 7.5 °C 1014.1 hPa NNE 4.7 km/h 9.7 km/h 89% 0.0 mm 0.00 W/m2
22:34 9.2 °C 7.5 °C 1014.1 hPa NE 4.7 km/h 14.5 km/h 89% 0.0 mm 0.00 W/m2
22:39 9.2 °C 7.5 °C 1014.1 hPa Calm   11.3 km/h 89% 0.0 mm 0.00 W/m2
22:44 9.1 °C 7.4 °C 1014.1 hPa North 9.7 km/h 12.9 km/h 89% 0.0 mm 0.00 W/m2
22:49 9.0 °C 7.3 °C 1014.1 hPa NE 6.4 km/h 6.4 km/h 89% 0.0 mm 0.00 W/m2
22:54 9.1 °C 7.4 °C 1014.1 hPa North 17.7 km/h 17.7 km/h 89% 0.0 mm 0.00 W/m2
22:59 9.0 °C 7.3 °C 1013.8 hPa NE 9.7 km/h 16.1 km/h 89% 0.0 mm 0.00 W/m2
23:04 8.9 °C 7.2 °C 1014.1 hPa NNE 3.2 km/h 14.5 km/h 89% 0.0 mm 0.00 W/m2
23:09 9.0 °C 7.3 °C 1013.8 hPa NNE 7.9 km/h 14.5 km/h 89% 0.0 mm 0.00 W/m2
23:14 9.0 °C 7.3 °C 1013.8 hPa NE 1.4 km/h 4.8 km/h 89% 0.0 mm 0.00 W/m2
23:19 8.9 °C 7.2 °C 1013.8 hPa ENE 4.7 km/h 14.5 km/h 89% 0.0 mm 0.00 W/m2
23:24 8.9 °C 7.2 °C 1013.8 hPa NNW 6.4 km/h 11.3 km/h 89% 0.0 mm 0.00 W/m2
23:29 8.8 °C 7.1 °C 1013.8 hPa North 3.2 km/h 20.9 km/h 89% 0.0 mm 0.00 W/m2
23:34 8.8 °C 7.1 °C 1013.8 hPa NE 4.7 km/h 14.5 km/h 89% 0.0 mm 0.00 W/m2
23:39 8.8 °C 7.1 °C 1013.8 hPa NE 7.9 km/h 14.5 km/h 89% 0.0 mm 0.00 W/m2
23:44 8.8 °C 7.2 °C 1013.4 hPa NE 7.9 km/h 12.9 km/h 90% 0.0 mm 0.00 W/m2
23:49 8.8 °C 7.2 °C 1013.4 hPa North 1.4 km/h 6.4 km/h 90% 0.0 mm 0.00 W/m2
23:54 8.8 °C 7.2 °C 1013.4 hPa Calm   11.3 km/h 90% 0.0 mm 0.00 W/m2
23:59 8.8 °C 7.2 °C 1013.4 hPa North 3.2 km/h 14.5 km/h 90% 0.0 mm 0.00 W/m2